Walnut Shade, Missouri
Current Conditions -  °F | °C
As of 3:35 PM on Saturday 22 Nov 2014 (Local Time) from KFWB Reporting Station
Light Rain Light Rain  
Wind Chill: 52°   Ceiling: 500
Heat Index: 52°   Visibility: 4mi
Dew Point: 52°   Wind: 10mph
Humidity: 100%   Direction: 140°SE
Pressure: 29.93"   Gusts: 17mph
Location:  36.73°N, 93.19°W
Report Text: KFWB 222135Z AUTO 14009G15KT 4SM -RA BKN005 BKN010 11/11 A2993 RMK AO2
Loading
Personal Weather Stations






























Interactive Weather Map New forecast layout! Learn more

10-Day Weather Forecast

Advertisements
Track Severe Weather on mobile